Time;durP1;ratioP1;P1;durP2;ratioP2;P2;SDS_P1;SDS_P2;PMS_P1;PMS_P2;Temp;Humidity;BMP_temperature;BMP_pressure;BME280_temperature;BME280_humidity;BME280_pressure;Samples;Min_cycle;Max_cycle;Signal;HPM_P1;HPM_P2
2022/02/17 00:01:32;;;;;;;1.80;0.50;;;;;;;15.16;61.70;96206.03;5111046;28;20270;-73
2022/02/17 00:03:58;;;;;;;0.70;0.40;;;;;;;15.08;61.70;96222.09;5113027;28;20184;-73
2022/02/17 00:06:23;;;;;;;0.70;0.40;;;;;;;15.19;61.08;96226.75;5115613;28;20209;-73
2022/02/17 00:08:49;;;;;;;0.80;0.50;;;;;;;15.21;61.02;96221.25;5105087;28;20208;-73
2022/02/17 00:11:14;;;;;;;0.80;0.50;;;;;;;15.31;60.61;96223.47;5115184;28;20230;-72
2022/02/17 00:13:40;;;;;;;0.80;0.50;;;;;;;15.40;59.90;96230.16;5114520;28;20622;-73
2022/02/17 00:16:05;;;;;;;1.20;0.50;;;;;;;15.28;60.18;96206.22;5115330;28;20235;-72
2022/02/17 00:18:30;;;;;;;1.00;0.50;;;;;;;15.38;60.06;96212.91;5114494;28;20189;-73
2022/02/17 00:20:56;;;;;;;0.90;0.50;;;;;;;15.36;60.04;96199.94;5115240;28;20197;-74
2022/02/17 00:23:22;;;;;;;0.80;0.43;;;;;;;15.44;59.90;96186.50;5115165;28;20253;-73
2022/02/17 00:25:48;;;;;;;0.70;0.40;;;;;;;15.35;59.91;96185.09;5114947;28;20188;-72
2022/02/17 00:28:13;;;;;;;0.70;0.40;;;;;;;15.65;59.13;96184.56;5114605;28;20422;-72
2022/02/17 00:30:39;;;;;;;0.77;0.40;;;;;;;15.52;59.33;96175.69;5114765;28;20208;-72
2022/02/17 00:33:04;;;;;;;0.80;0.50;;;;;;;15.47;59.41;96175.50;5114592;28;20656;-71
2022/02/17 00:35:31;;;;;;;0.80;0.50;;;;;;;15.42;59.49;96158.69;5104826;28;20260;-72
2022/02/17 00:37:57;;;;;;;1.20;0.50;;;;;;;15.29;60.03;96167.44;5114497;28;20192;-72
2022/02/17 00:40:23;;;;;;;0.70;0.40;;;;;;;15.44;59.51;96152.16;5114690;28;20950;-72
2022/02/17 00:42:49;;;;;;;1.00;0.50;;;;;;;15.25;59.79;96161.78;5114372;28;20470;-73
2022/02/17 00:45:14;;;;;;;1.73;0.43;;;;;;;15.52;59.32;96172.25;5114171;27;20427;-73
2022/02/17 00:47:40;;;;;;;0.80;0.40;;;;;;;15.47;59.33;96175.50;5114409;28;20221;-75
2022/02/17 00:50:06;;;;;;;0.80;0.50;;;;;;;15.60;59.18;96174.63;5114607;28;20210;-74
2022/02/17 00:52:31;;;;;;;0.70;0.40;;;;;;;15.45;59.49;96196.03;5114413;28;20181;-74
2022/02/17 00:54:56;;;;;;;0.90;0.50;;;;;;;15.59;59.32;96188.06;5114400;28;20260;-75
2022/02/17 00:57:22;;;;;;;2.13;0.50;;;;;;;15.51;59.69;96181.97;5114844;28;20207;-75
2022/02/17 00:59:47;;;;;;;0.87;0.50;;;;;;;15.56;59.77;96175.28;5113645;28;20205;-73
2022/02/17 01:02:13;;;;;;;0.80;0.50;;;;;;;15.57;59.80;96184.81;5114153;28;20215;-74
2022/02/17 01:04:39;;;;;;;0.90;0.57;;;;;;;15.61;59.89;96178.09;5111264;28;20181;-73
2022/02/17 01:07:04;;;;;;;0.80;0.40;;;;;;;15.57;59.98;96180.34;5114291;28;20184;-73
2022/02/17 01:09:30;;;;;;;0.80;0.57;;;;;;;15.59;60.13;96161.66;5113621;28;20678;-74
2022/02/17 01:11:55;;;;;;;2.30;0.50;;;;;;;15.57;60.67;96142.56;5114111;28;20173;-73
2022/02/17 01:14:20;;;;;;;1.43;0.50;;;;;;;15.37;61.80;96140.84;5113425;28;20201;-73
2022/02/17 01:16:46;;;;;;;0.87;0.60;;;;;;;15.17;62.29;96148.81;5113618;28;20591;-73
2022/02/17 01:19:12;;;;;;;2.20;0.50;;;;;;;15.17;62.34;96159.38;5113637;28;20304;-74
2022/02/17 01:21:38;;;;;;;0.80;0.50;;;;;;;15.36;61.86;96162.97;5113613;28;20566;-73
2022/02/17 01:24:04;;;;;;;0.73;0.40;;;;;;;15.20;62.47;96165.03;5114072;28;20428;-73
2022/02/17 01:26:29;;;;;;;1.40;0.50;;;;;;;15.18;62.62;96153.88;5113611;28;20827;-72
2022/02/17 01:28:55;;;;;;;0.70;0.40;;;;;;;15.03;63.13;96143.56;5113485;28;20192;-73
2022/02/17 01:31:20;;;;;;;0.97;0.50;;;;;;;15.06;63.15;96139.69;5113773;28;20190;-73
2022/02/17 01:33:46;;;;;;;0.80;0.50;;;;;;;15.14;62.65;96154.50;5113723;28;20188;-74
2022/02/17 01:36:11;;;;;;;1.00;0.50;;;;;;;15.10;62.78;96162.03;5116073;28;20184;-73
2022/02/17 01:38:38;;;;;;;0.80;0.40;;;;;;;15.01;63.04;96177.25;5109528;28;20177;-72
2022/02/17 01:41:05;;;;;;;0.70;0.40;;;;;;;14.96;63.28;96132.19;5107384;28;20204;-72
2022/02/17 01:43:32;;;;;;;0.70;0.40;;;;;;;14.77;64.18;96144.41;5112977;27;20466;-72
2022/02/17 01:45:58;;;;;;;1.30;0.50;;;;;;;14.87;63.86;96160.63;5113076;28;20462;-73
2022/02/17 01:48:24;;;;;;;0.80;0.47;;;;;;;14.85;63.79;96162.66;5103552;28;20427;-73
2022/02/17 01:50:49;;;;;;;0.70;0.40;;;;;;;14.83;63.88;96159.41;5113156;28;20441;-73
2022/02/17 01:53:16;;;;;;;0.80;0.50;;;;;;;14.88;63.87;96172.78;5098629;28;20231;-73
2022/02/17 01:55:44;;;;;;;0.80;0.50;;;;;;;14.89;63.99;96177.06;5113010;28;20190;-73
2022/02/17 01:58:10;;;;;;;0.80;0.50;;;;;;;15.03;63.69;96184.94;5097761;28;20446;-73
2022/02/17 02:00:35;;;;;;;0.80;0.50;;;;;;;14.93;64.19;96171.38;5112828;28;20499;-73
2022/02/17 02:03:01;;;;;;;1.00;0.50;;;;;;;14.67;65.16;96175.63;5113388;28;20310;-72
2022/02/17 02:05:26;;;;;;;0.70;0.40;;;;;;;14.71;65.12;96158.41;5113004;28;20248;-72
2022/02/17 02:07:52;;;;;;;1.03;0.40;;;;;;;14.59;65.46;96147.63;5112738;28;20184;-73
2022/02/17 02:10:17;;;;;;;0.80;0.50;;;;;;;14.67;65.31;96144.84;5112841;28;20232;-73
2022/02/17 02:12:43;;;;;;;0.90;0.53;;;;;;;14.57;65.57;96147.84;5112673;28;20230;-72
2022/02/17 02:15:09;;;;;;;0.70;0.40;;;;;;;14.69;65.32;96161.25;5112575;28;20196;-72
2022/02/17 02:17:34;;;;;;;0.80;0.47;;;;;;;14.59;65.78;96143.19;5112498;28;20189;-73
2022/02/17 02:20:04;;;;;;;0.80;0.50;;;;;;;14.77;65.17;96156.78;5102822;28;20214;-73
2022/02/17 02:22:31;;;;;;;0.80;0.50;;;;;;;14.59;65.94;96147.63;5102740;28;20209;-72
2022/02/17 02:25:00;;;;;;;0.70;0.40;;;;;;;14.60;65.81;96162.44;5112666;28;20427;-72
2022/02/17 02:27:26;;;;;;;0.70;0.40;;;;;;;14.69;65.64;96163.06;5098570;28;20798;-72
2022/02/17 02:29:52;;;;;;;0.70;0.40;;;;;;;14.54;66.08;96164.06;5112071;28;20457;-72
2022/02/17 02:32:17;;;;;;;0.80;0.50;;;;;;;14.48;66.49;96167.53;5112653;28;20422;-72
2022/02/17 02:34:43;;;;;;;0.90;0.60;;;;;;;14.43;66.88;96143.59;5112602;28;20187;-74
2022/02/17 02:37:08;;;;;;;0.90;0.70;;;;;;;14.50;67.04;96162.84;5112733;28;20600;-74
2022/02/17 02:39:34;;;;;;;0.80;0.40;;;;;;;14.67;66.50;96168.56;5111844;28;20236;-74
2022/02/17 02:42:01;;;;;;;0.80;0.50;;;;;;;14.63;66.51;96169.94;5112412;28;20240;-74
2022/02/17 02:44:26;;;;;;;0.77;0.50;;;;;;;14.63;66.82;96169.13;5111443;28;20914;-74
2022/02/17 02:46:52;;;;;;;1.03;0.50;;;;;;;14.71;66.39;96158.41;5112321;28;20426;-74
2022/02/17 02:49:17;;;;;;;0.70;0.40;;;;;;;14.61;66.76;96161.44;5111560;28;20697;-73
2022/02/17 02:51:43;;;;;;;1.30;0.50;;;;;;;14.46;67.34;96160.81;5112253;28;20177;-72
2022/02/17 02:54:08;;;;;;;3.37;0.40;;;;;;;14.39;67.68;96139.72;5102366;28;20212;-73
2022/02/17 02:56:34;;;;;;;0.80;0.50;;;;;;;14.52;67.15;96123.91;5095993;28;20185;-74
2022/02/17 02:58:59;;;;;;;0.90;0.43;;;;;;;14.46;67.37;96121.28;5111902;28;20280;-73
2022/02/17 03:01:25;;;;;;;0.80;0.50;;;;;;;14.41;67.47;96114.81;5111872;28;20212;-73
2022/02/17 03:03:51;;;;;;;0.90;0.50;;;;;;;14.53;67.00;96133.44;5112089;28;20260;-73
2022/02/17 03:06:19;;;;;;;0.80;0.50;;;;;;;14.19;68.18;96124.72;5102214;28;20237;-73
2022/02/17 03:08:45;;;;;;;0.80;0.50;;;;;;;14.43;67.48;96130.41;5111332;28;20197;-74
2022/02/17 03:11:11;;;;;;;0.80;0.50;;;;;;;14.60;66.86;96125.53;5111748;28;20460;-73
2022/02/17 03:13:36;;;;;;;0.80;0.50;;;;;;;14.32;67.98;96131.81;5110957;28;20557;-72
2022/02/17 03:16:02;;;;;;;0.80;0.50;;;;;;;14.53;67.32;96138.72;5102192;28;20182;-73
2022/02/17 03:18:28;;;;;;;0.90;0.50;;;;;;;14.43;67.33;96143.59;5111353;28;20188;-73
2022/02/17 03:20:53;;;;;;;0.70;0.40;;;;;;;14.47;67.15;96155.34;5111901;28;20578;-73
2022/02/17 03:23:19;;;;;;;1.00;0.57;;;;;;;14.33;67.07;96122.09;5111647;28;20205;-73
2022/02/17 03:25:44;;;;;;;0.80;0.40;;;;;;;14.48;67.06;96125.34;5111478;28;20220;-73
2022/02/17 03:28:10;;;;;;;0.70;0.40;;;;;;;14.39;67.57;96122.09;5101463;28;20239;-73
2022/02/17 03:30:36;;;;;;;1.33;0.43;;;;;;;14.50;67.16;96123.28;5111354;28;20288;-73
2022/02/17 03:33:02;;;;;;;0.80;0.50;;;;;;;14.35;68.12;96128.78;5111762;28;20177;-73
2022/02/17 03:35:28;;;;;;;0.70;0.43;;;;;;;14.37;67.66;96128.56;5117186;28;20431;-73
2022/02/17 03:37:53;;;;;;;2.40;0.50;;;;;;;14.42;67.69;96097.16;5111085;28;20211;-73
2022/02/17 03:40:18;;;;;;;2.10;0.50;;;;;;;14.26;68.27;96130.00;5103113;28;20201;-72
2022/02/17 03:42:44;;;;;;;0.90;0.50;;;;;;;14.49;67.40;96147.22;5111046;28;20211;-73
2022/02/17 03:45:11;;;;;;;4.20;0.60;;;;;;;14.43;67.28;96123.28;5096506;28;20186;-73
2022/02/17 03:47:36;;;;;;;0.73;0.40;;;;;;;14.42;67.63;96119.06;5111077;28;20264;-73
2022/02/17 03:50:04;;;;;;;0.90;0.40;;;;;;;14.42;67.44;96131.41;5111245;28;20541;-73
2022/02/17 03:52:29;;;;;;;0.70;0.40;;;;;;;14.39;67.50;96139.72;5111306;28;20181;-73
2022/02/17 03:54:55;;;;;;;0.70;0.40;;;;;;;14.19;68.10;96145.81;5112137;28;20421;-73
2022/02/17 03:57:20;;;;;;;1.13;0.50;;;;;;;14.46;67.13;96121.28;5093045;28;20281;-73
2022/02/17 03:59:46;;;;;;;0.70;0.40;;;;;;;14.48;67.13;96130.63;5097733;28;20246;-73
2022/02/17 04:02:11;;;;;;;1.90;0.50;;;;;;;14.32;67.42;96126.53;5093997;28;20221;-74
2022/02/17 04:04:37;;;;;;;1.53;0.40;;;;;;;14.39;67.09;96134.44;5104131;28;20197;-74
2022/02/17 04:07:03;;;;;;;1.00;0.50;;;;;;;14.28;67.75;96127.97;5109842;28;20188;-73
2022/02/17 04:09:29;;;;;;;0.87;0.50;;;;;;;14.24;67.64;96148.63;5109282;28;20797;-72
2022/02/17 04:11:54;;;;;;;2.50;0.40;;;;;;;14.40;67.39;96149.25;5111841;28;20407;-73
2022/02/17 04:14:19;;;;;;;1.47;0.60;;;;;;;14.59;66.77;96140.53;5109862;28;20270;-73
2022/02/17 04:16:45;;;;;;;0.70;0.40;;;;;;;14.42;67.44;96141.97;5110999;28;20258;-74
2022/02/17 04:19:11;;;;;;;0.80;0.40;;;;;;;14.51;66.96;96155.75;5110592;28;20210;-73
2022/02/17 04:21:36;;;;;;;0.70;0.40;;;;;;;14.56;66.56;96140.94;5110539;28;20184;-72
2022/02/17 04:24:02;;;;;;;1.93;0.50;;;;;;;14.62;66.44;96149.06;5080712;28;20680;-73
2022/02/17 04:26:28;;;;;;;0.70;0.40;;;;;;;14.53;66.76;96149.25;5093099;28;20517;-73
2022/02/17 04:28:55;;;;;;;1.93;0.60;;;;;;;14.46;67.21;96145.00;5076334;28;20177;-73
2022/02/17 04:31:21;;;;;;;1.27;0.90;;;;;;;14.65;66.61;96160.00;5111348;28;20204;-72
2022/02/17 04:33:46;;;;;;;1.40;1.30;;;;;;;14.59;66.97;96169.56;5109814;28;20427;-72
2022/02/17 04:36:12;;;;;;;0.80;0.50;;;;;;;14.48;67.11;96161.41;5110570;28;20272;-72
2022/02/17 04:38:38;;;;;;;0.70;0.50;;;;;;;14.62;66.94;96184.16;5110120;28;20221;-73
2022/02/17 04:43:47;;;;;;;1.43;0.47;;;;;;;14.74;66.20;96174.63;5110266;28;20676;-73
2022/02/17 04:46:13;;;;;;;0.80;0.50;;;;;;;14.78;66.11;96188.22;5110822;28;20427;-73
2022/02/17 04:48:39;;;;;;;0.80;0.50;;;;;;;14.65;66.35;96198.75;5110192;28;20271;-72
2022/02/17 04:51:05;;;;;;;0.80;0.50;;;;;;;14.81;65.97;96203.66;5094401;28;20673;-72
2022/02/17 04:53:31;;;;;;;0.80;0.50;;;;;;;14.82;66.06;96201.81;5099580;28;20430;-72
2022/02/17 04:55:56;;;;;;;1.73;0.60;;;;;;;14.67;67.08;96183.53;5114253;28;20272;-73
2022/02/17 04:58:24;;;;;;;0.90;0.50;;;;;;;14.72;66.26;96183.78;5113897;27;20433;-73
2022/02/17 05:00:50;;;;;;;1.63;0.50;;;;;;;14.74;66.12;96181.75;5113366;28;20209;-73
2022/02/17 05:03:16;;;;;;;1.00;0.50;;;;;;;14.72;66.06;96186.41;5100388;28;20788;-73
2022/02/17 05:05:42;;;;;;;1.30;0.50;;;;;;;14.67;65.61;96197.56;5113397;28;20430;-73
2022/02/17 05:08:07;;;;;;;0.70;0.40;;;;;;;14.84;65.39;96203.25;5113055;27;20193;-73
2022/02/17 05:10:33;;;;;;;2.07;0.60;;;;;;;14.78;65.56;96230.41;5113770;28;20197;-72
2022/02/17 05:12:59;;;;;;;1.00;0.60;;;;;;;14.79;65.31;96218.06;5096327;28;20177;-74
2022/02/17 05:15:24;;;;;;;1.00;0.57;;;;;;;14.89;65.51;96211.34;5113466;28;20655;-73
2022/02/17 05:17:50;;;;;;;1.00;0.60;;;;;;;14.89;65.45;96232.44;5105128;28;20419;-73
2022/02/17 05:20:15;;;;;;;0.80;0.50;;;;;;;14.79;65.66;96218.84;5113537;28;20216;-71
2022/02/17 05:22:42;;;;;;;0.90;0.50;;;;;;;14.63;66.00;96222.69;5112772;28;20207;-71
2022/02/17 05:25:12;;;;;;;1.20;0.50;;;;;;;14.79;65.34;96233.88;5114020;28;20656;-71
2022/02/17 05:27:38;;;;;;;1.13;0.60;;;;;;;14.81;65.11;96248.47;5113408;28;20423;-72
2022/02/17 05:30:03;;;;;;;1.90;0.53;;;;;;;14.74;65.21;96253.75;5113430;28;20445;-72
2022/02/17 05:32:29;;;;;;;1.80;0.50;;;;;;;14.90;64.74;96259.66;5112339;28;20237;-72
2022/02/17 05:34:54;;;;;;;0.93;0.50;;;;;;;14.81;64.48;96271.38;5118980;27;20209;-73
2022/02/17 05:37:20;;;;;;;0.90;0.50;;;;;;;14.78;64.49;96280.53;5099607;28;20550;-74
2022/02/17 05:39:45;;;;;;;2.50;0.60;;;;;;;14.92;64.12;96291.09;5095827;28;20216;-74
2022/02/17 05:42:11;;;;;;;1.27;0.70;;;;;;;14.99;63.78;96305.13;5113146;28;20553;-74
2022/02/17 05:44:36;;;;;;;1.43;0.60;;;;;;;15.03;63.44;96293.94;5102340;28;20188;-75
2022/02/17 05:47:02;;;;;;;0.90;0.43;;;;;;;15.10;63.37;96299.22;5102581;28;20186;-73
2022/02/17 05:49:28;;;;;;;1.37;0.50;;;;;;;14.99;63.61;96307.75;5113060;28;20266;-74
2022/02/17 05:51:53;;;;;;;3.83;0.53;;;;;;;14.92;63.31;96326.22;5114638;28;20177;-71
2022/02/17 05:54:19;;;;;;;0.90;0.50;;;;;;;14.96;63.31;96321.34;5110124;28;20250;-72
2022/02/17 05:56:44;;;;;;;0.80;0.50;;;;;;;15.06;62.95;96327.03;5120071;28;20197;-73
2022/02/17 05:59:10;;;;;;;0.93;0.50;;;;;;;14.97;62.61;96322.97;5119625;28;20321;-73
2022/02/17 06:01:35;;;;;;;2.20;0.67;;;;;;;14.95;62.43;96315.22;5117407;28;20213;-74
2022/02/17 06:04:00;;;;;;;0.90;0.50;;;;;;;14.98;62.13;96332.50;5104999;28;21248;-73
2022/02/17 06:06:26;;;;;;;1.30;0.60;;;;;;;14.87;61.62;96358.44;5116029;28;20240;-74
2022/02/17 06:08:52;;;;;;;2.67;0.87;;;;;;;14.72;60.67;96342.00;5112616;28;20196;-72
2022/02/17 06:11:17;;;;;;;1.00;0.70;;;;;;;14.66;60.39;96333.03;5103568;28;20185;-74
2022/02/17 06:13:43;;;;;;;2.70;0.80;;;;;;;14.75;59.03;96362.69;5113095;28;20600;-74
2022/02/17 06:16:08;;;;;;;6.20;1.10;;;;;;;14.80;58.64;96375.28;5113391;28;20230;-74
2022/02/17 06:18:34;;;;;;;2.50;0.90;;;;;;;14.70;58.37;96384.38;5112260;28;20195;-73
2022/02/17 06:21:00;;;;;;;4.83;0.90;;;;;;;14.61;58.15;96382.09;5114011;28;20205;-73
2022/02/17 06:23:26;;;;;;;2.33;0.80;;;;;;;14.73;58.00;96385.81;5111892;28;20619;-74
2022/02/17 06:25:52;;;;;;;4.00;1.13;;;;;;;14.80;57.86;96378.72;5113453;28;20449;-74
2022/02/17 06:28:17;;;;;;;2.90;0.90;;;;;;;14.71;57.75;96379.94;5113266;27;20188;-74
2022/02/17 06:30:44;;;;;;;7.57;1.70;;;;;;;14.55;57.42;96379.25;5112928;28;20744;-74
2022/02/17 06:33:11;;;;;;;6.00;1.20;;;;;;;14.66;57.06;96393.69;5112538;28;20173;-73
2022/02/17 06:35:38;;;;;;;4.90;0.97;;;;;;;14.70;56.88;96388.84;5110852;28;20482;-72
2022/02/17 06:38:05;;;;;;;6.40;1.20;;;;;;;14.66;56.92;96406.88;5111493;28;20427;-69
2022/02/17 06:40:31;;;;;;;4.67;1.50;;;;;;;14.75;56.42;96418.06;5111414;28;20451;-71
2022/02/17 06:43:02;;;;;;;3.20;0.93;;;;;;;14.68;56.11;96427.78;5111595;28;20459;-73
2022/02/17 06:45:28;;;;;;;4.60;1.47;;;;;;;14.62;56.15;96431.19;5111642;28;20435;-71
2022/02/17 06:47:54;;;;;;;4.83;1.33;;;;;;;14.47;55.73;96437.41;5112064;28;20510;-75
2022/02/17 06:50:20;;;;;;;6.03;1.40;;;;;;;14.55;55.50;96442.50;5094202;28;20201;-75
2022/02/17 06:52:45;;;;;;;5.00;1.00;;;;;;;14.59;55.12;96448.19;5113071;27;20453;-74
2022/02/17 06:55:12;;;;;;;4.00;1.27;;;;;;;14.54;55.34;96451.44;5112778;28;20253;-75
2022/02/17 06:57:38;;;;;;;4.90;1.53;;;;;;;14.56;55.11;96453.84;5093835;28;20279;-74
2022/02/17 07:00:05;;;;;;;8.57;1.60;;;;;;;14.69;54.70;96447.88;5111474;28;21025;-74
2022/02/17 07:02:34;;;;;;;3.63;1.30;;;;;;;14.51;54.49;96459.72;5093374;28;20200;-75
2022/02/17 07:05:01;;;;;;;7.83;1.90;;;;;;;14.57;54.29;96481.84;5112054;28;20411;-75
2022/02/17 07:07:27;;;;;;;5.57;1.30;;;;;;;14.45;54.03;96486.88;5110703;28;20518;-74
2022/02/17 07:09:52;;;;;;;7.60;1.83;;;;;;;14.48;53.98;96494.41;5092919;28;20535;-74
2022/02/17 07:12:18;;;;;;;6.73;1.50;;;;;;;14.47;54.12;96495.41;5111236;28;20854;-74
2022/02/17 07:14:43;;;;;;;8.43;2.00;;;;;;;14.55;54.20;96503.16;5092582;28;20217;-74
2022/02/17 07:17:09;;;;;;;8.97;1.77;;;;;;;14.44;55.47;96498.44;5111647;28;20247;-74
2022/02/17 07:19:35;;;;;;;16.70;2.03;;;;;;;14.43;55.71;96488.88;5111163;28;20228;-74
2022/02/17 07:22:00;;;;;;;6.27;2.33;;;;;;;14.50;55.92;96487.09;5111654;28;20215;-74
2022/02/17 07:24:27;;;;;;;9.03;2.03;;;;;;;14.52;56.32;96479.81;5096712;28;20276;-74
2022/02/17 07:26:52;;;;;;;6.50;1.90;;;;;;;14.59;56.41;96495.66;5111745;28;20187;-73
2022/02/17 07:29:18;;;;;;;4.10;1.53;;;;;;;14.62;56.49;96499.75;5111103;28;20534;-73
2022/02/17 07:31:44;;;;;;;7.40;1.57;;;;;;;14.64;56.72;96488.00;5111440;28;20223;-74
2022/02/17 07:34:10;;;;;;;5.10;1.30;;;;;;;14.72;56.86;96484.41;5096581;28;20274;-75
2022/02/17 07:36:36;;;;;;;4.90;1.40;;;;;;;14.67;56.88;96484.13;5111424;28;20190;-74
2022/02/17 07:39:03;;;;;;;4.83;1.53;;;;;;;14.71;56.53;96503.88;5111445;28;20839;-73
2022/02/17 07:41:30;;;;;;;5.50;1.87;;;;;;;14.76;56.20;96503.28;5101765;28;20628;-75
2022/02/17 07:43:56;;;;;;;5.20;1.30;;;;;;;14.79;55.93;96501.06;5110561;28;20733;-75
2022/02/17 07:46:22;;;;;;;4.90;1.30;;;;;;;14.79;55.46;96510.81;5111644;28;20430;-74
2022/02/17 07:48:50;;;;;;;4.37;1.40;;;;;;;14.84;55.50;96513.66;5076505;28;20180;-74
2022/02/17 07:51:16;;;;;;;3.20;1.60;;;;;;;14.87;55.33;96508.81;5111313;28;20733;-74
2022/02/17 07:53:43;;;;;;;5.33;1.53;;;;;;;14.83;54.96;96528.69;5110268;28;20434;-74
2022/02/17 07:56:08;;;;;;;6.70;1.57;;;;;;;14.78;54.45;96525.81;5111453;28;20461;-73
2022/02/17 07:58:34;;;;;;;4.07;1.30;;;;;;;14.74;54.10;96532.50;5110464;28;21063;-74
2022/02/17 08:01:01;;;;;;;5.43;1.20;;;;;;;14.82;53.43;96529.69;5095834;28;20192;-74
2022/02/17 08:03:26;;;;;;;6.47;1.13;;;;;;;14.80;52.52;96529.06;5110973;28;20305;-74
2022/02/17 08:05:52;;;;;;;5.87;1.40;;;;;;;14.76;51.50;96521.75;5111245;28;20419;-73
2022/02/17 08:08:18;;;;;;;8.30;1.93;;;;;;;14.65;50.50;96538.88;5110635;28;20192;-73
2022/02/17 08:10:43;;;;;;;9.23;1.43;;;;;;;14.86;50.02;96538.84;5110111;28;20201;-73
2022/02/17 08:13:09;;;;;;;5.07;1.73;;;;;;;14.97;49.56;96560.41;5111014;28;20418;-72
2022/02/17 08:15:34;;;;;;;7.07;2.13;;;;;;;15.11;48.79;96570.00;5080523;28;20638;-74
2022/02/17 08:18:00;;;;;;;6.40;2.00;;;;;;;15.19;48.29;96569.00;5110517;28;20181;-75
2022/02/17 08:20:29;;;;;;;10.27;2.10;;;;;;;15.37;47.54;96576.41;5098226;28;20232;-73
2022/02/17 08:22:56;;;;;;;6.43;1.73;;;;;;;15.68;47.05;96593.53;5110450;28;20520;-73
2022/02/17 08:25:22;;;;;;;10.03;2.40;;;;;;;15.92;46.25;96592.22;5113044;28;20224;-73
2022/02/17 08:27:48;;;;;;;7.07;1.70;;;;;;;15.93;45.32;96593.00;5114255;28;20414;-74
2022/02/17 08:30:14;;;;;;;6.93;1.80;;;;;;;16.09;44.43;96600.56;5096964;28;20484;-73
2022/02/17 08:32:40;;;;;;;12.53;2.40;;;;;;;16.30;43.76;96585.50;5096432;28;20915;-72
2022/02/17 08:35:07;;;;;;;9.90;2.07;;;;;;;16.54;43.09;96602.59;5114749;28;20422;-73
2022/02/17 08:37:33;;;;;;;9.97;1.97;;;;;;;16.65;42.95;96608.28;5104715;28;20185;-73
2022/02/17 08:39:58;;;;;;;7.90;2.20;;;;;;;16.72;42.36;96617.00;5114171;28;20449;-73
2022/02/17 08:42:24;;;;;;;10.10;2.50;;;;;;;16.83;42.49;96634.09;5113578;28;20235;-73
2022/02/17 08:44:49;;;;;;;10.17;2.37;;;;;;;16.96;41.22;96627.97;5114519;28;20184;-73
2022/02/17 08:47:17;;;;;;;6.33;1.80;;;;;;;17.21;40.70;96633.44;5114499;28;20199;-73
2022/02/17 08:49:43;;;;;;;8.90;2.60;;;;;;;17.29;40.24;96609.34;5114080;28;20209;-73
2022/02/17 08:52:09;;;;;;;5.80;1.93;;;;;;;17.20;40.18;96619.34;5114664;28;20411;-73
2022/02/17 08:54:35;;;;;;;9.60;2.47;;;;;;;17.43;39.53;96630.50;5113654;28;20518;-73
2022/02/17 08:57:01;;;;;;;4.60;1.60;;;;;;;17.69;39.01;96618.16;5114189;28;20197;-72
2022/02/17 08:59:26;;;;;;;7.07;2.00;;;;;;;18.00;38.64;96624.53;5112592;28;20584;-73
2022/02/17 09:01:53;;;;;;;7.43;2.20;;;;;;;18.07;37.33;96626.13;5114564;28;20602;-72
2022/02/17 09:04:19;;;;;;;6.30;1.70;;;;;;;17.96;37.27;96621.44;5114196;28;20268;-73
2022/02/17 09:06:47;;;;;;;7.57;2.10;;;;;;;17.98;37.09;96618.63;5078931;28;20518;-72
2022/02/17 09:09:12;;;;;;;7.50;2.23;;;;;;;18.21;37.22;96605.63;5113932;28;20673;-73
2022/02/17 09:11:38;;;;;;;11.03;2.87;;;;;;;18.14;36.91;96604.88;5106842;27;20434;-73
2022/02/17 09:14:03;;;;;;;6.30;2.40;;;;;;;18.22;36.83;96639.06;5111935;28;20181;-73
2022/02/17 09:16:29;;;;;;;6.20;1.97;;;;;;;18.27;36.01;96652.47;5107903;28;20203;-72
2022/02/17 09:18:54;;;;;;;7.33;2.23;;;;;;;18.34;34.81;96656.94;5110785;28;20185;-73
2022/02/17 09:21:19;;;;;;;15.90;2.53;;;;;;;18.17;33.64;96638.88;5107657;28;20249;-73
2022/02/17 09:23:45;;;;;;;4.63;1.70;;;;;;;18.11;33.38;96650.38;5113225;27;20215;-73
2022/02/17 09:26:10;;;;;;;10.40;2.00;;;;;;;18.33;33.69;96644.69;5107679;28;20754;-73
2022/02/17 09:28:36;;;;;;;8.43;2.43;;;;;;;18.48;32.27;96662.94;5111220;28;20525;-73
2022/02/17 09:31:02;;;;;;;8.03;2.30;;;;;;;18.55;32.09;96669.03;5107807;28;20205;-73
2022/02/17 09:33:27;;;;;;;8.93;2.67;;;;;;;18.58;32.22;96673.91;5111005;28;20189;-73
2022/02/17 09:35:55;;;;;;;10.50;2.53;;;;;;;18.57;32.48;96677.59;5113304;28;20260;-73
2022/02/17 09:38:20;;;;;;;8.43;2.73;;;;;;;18.84;31.81;96666.72;5113373;28;20185;-73
2022/02/17 09:40:46;;;;;;;16.40;2.23;;;;;;;18.91;31.38;96678.09;5112881;28;20958;-73
2022/02/17 09:43:12;;;;;;;14.20;2.20;;;;;;;19.14;30.83;96672.22;5108431;27;20205;-73
2022/02/17 09:45:43;;;;;;;14.03;2.63;;;;;;;18.97;30.55;96677.25;5112549;28;20288;-73
2022/02/17 09:48:10;;;;;;;8.50;2.50;;;;;;;18.54;31.18;96689.41;5113276;28;20427;-73
2022/02/17 09:50:35;;;;;;;12.43;2.50;;;;;;;18.15;31.96;96691.31;5113006;28;20455;-72
2022/02/17 09:53:02;;;;;;;11.47;2.87;;;;;;;17.70;32.77;96686.00;5112652;28;20561;-72
2022/02/17 09:55:28;;;;;;;10.83;2.80;;;;;;;17.24;33.21;96708.97;5111900;28;20260;-72
2022/02/17 09:57:53;;;;;;;13.50;3.27;;;;;;;16.82;34.33;96703.91;5112831;28;21041;-72
2022/02/17 10:00:19;;;;;;;12.70;2.33;;;;;;;16.57;35.19;96712.44;5113119;28;20753;-72
2022/02/17 10:02:44;;;;;;;15.93;2.80;;;;;;;16.78;35.39;96723.84;5112806;28;20557;-74
2022/02/17 10:05:11;;;;;;;11.47;2.40;;;;;;;16.95;35.83;96721.66;5113100;28;20265;-73
2022/02/17 10:07:39;;;;;;;10.37;2.63;;;;;;;17.42;36.56;96725.03;5112623;28;20289;-73
2022/02/17 10:10:10;;;;;;;9.83;2.73;;;;;;;17.69;36.83;96724.97;5094746;28;20442;-73
2022/02/17 10:12:55;;;;;;;10.20;2.67;;;;;;;17.32;36.86;96725.47;5094307;28;20422;-73
2022/02/17 10:15:32;;;;;;;14.17;2.50;;;;;;;17.46;37.14;96720.94;5112646;28;20437;-73
2022/02/17 10:18:12;;;;;;;13.07;2.60;;;;;;;17.04;37.29;96726.50;5111360;28;20479;-73
2022/02/17 10:20:57;;;;;;;16.77;2.70;;;;;;;17.19;37.85;96736.06;5111548;28;20457;-73
2022/02/17 10:23:30;;;;;;;9.97;2.20;;;;;;;17.35;37.47;96754.19;5108291;28;20481;-73
2022/02/17 10:26:07;;;;;;;12.60;2.90;;;;;;;17.35;37.31;96746.25;5110412;28;20480;-74
2022/02/17 10:28:44;;;;;;;8.40;2.53;;;;;;;17.31;36.89;96763.56;5108876;28;20437;-73
2022/02/17 10:31:23;;;;;;;13.43;3.00;;;;;;;17.09;37.10;96778.03;5112087;28;20518;-73
2022/02/17 10:33:52;;;;;;;8.10;2.67;;;;;;;17.08;37.79;96755.22;5112172;28;20464;-73
2022/02/17 10:36:34;;;;;;;17.67;3.30;;;;;;;17.11;37.81;96754.84;5096998;28;20545;-73
2022/02/17 10:39:13;;;;;;;14.40;3.37;;;;;;;16.91;38.37;96763.53;5102820;28;20506;-73
2022/02/17 10:42:05;;;;;;;10.87;2.67;;;;;;;16.72;38.59;96768.63;5111384;28;20411;-73
2022/02/17 10:44:36;;;;;;;16.20;3.40;;;;;;;16.60;38.91;96764.97;5110819;28;20573;-72
2022/02/17 10:47:13;;;;;;;11.30;2.57;;;;;;;16.62;39.32;96773.50;5111552;28;20427;-73
2022/02/17 10:49:43;;;;;;;17.83;2.77;;;;;;;16.53;39.83;96767.59;5109091;28;20482;-73
2022/02/17 10:52:10;;;;;;;9.97;2.67;;;;;;;16.49;39.44;96762.91;5112188;28;20494;-73
2022/02/17 10:54:36;;;;;;;14.33;3.13;;;;;;;16.24;38.92;96785.41;5092525;28;20427;-72
2022/02/17 10:57:05;;;;;;;8.50;2.20;;;;;;;16.73;38.19;96758.84;5095289;28;20435;-72
2022/02/17 11:02:20;;;;;;;15.07;3.50;;;;;;;17.43;37.41;96771.69;5111927;28;20455;-72
2022/02/17 11:04:46;;;;;;;9.67;3.10;;;;;;;17.68;36.93;96776.31;5111641;28;20813;-72
2022/02/17 11:07:12;;;;;;;9.87;2.57;;;;;;;17.61;36.04;96770.22;5094058;28;20426;-72
2022/02/17 11:09:38;;;;;;;7.93;2.33;;;;;;;17.63;35.33;96786.72;5111237;28;20216;-73
2022/02/17 11:12:04;;;;;;;8.47;2.40;;;;;;;17.71;35.00;96797.09;5111790;28;20185;-72
2022/02/17 11:14:37;;;;;;;10.37;2.30;;;;;;;17.79;34.46;96788.09;5111721;28;20462;-73
2022/02/17 11:17:03;;;;;;;11.13;2.07;;;;;;;17.99;34.21;96795.22;5111469;28;20541;-72
2022/02/17 11:19:29;;;;;;;7.07;2.07;;;;;;;18.42;33.65;96778.69;5115189;28;20438;-73
2022/02/17 11:21:54;;;;;;;11.67;2.30;;;;;;;18.68;32.99;96784.84;5096707;28;20504;-72
2022/02/17 11:24:20;;;;;;;7.97;2.07;;;;;;;18.87;32.20;96777.78;5111411;28;20271;-71
2022/02/17 11:26:45;;;;;;;7.80;2.27;;;;;;;18.97;30.89;96787.97;5109745;28;20177;-72
2022/02/17 11:29:27;;;;;;;12.67;2.97;;;;;;;18.62;30.96;96775.13;5111310;28;20260;-72
2022/02/17 11:32:02;;;;;;;8.67;2.40;;;;;;;18.00;31.58;96794.19;5111717;28;20185;-72
2022/02/17 11:34:48;;;;;;;13.03;3.43;;;;;;;17.59;32.07;96778.38;5111324;28;20422;-72